TAF Text Data
IDs:
Format:
Raw Decoded Include METAR

Data at: 1215 UTC 17 Sep 2019

KBHM 171133Z 1712/1812 00000KT P6SM SKC
  FM171600 34007KT P6SM FEW070
  FM180200 00000KT P6SM SKC